Time;durP1;ratioP1;P1;durP2;ratioP2;P2;SDS_P1;SDS_P2;PMS_P1;PMS_P2;Temp;Humidity;BMP_temperature;BMP_pressure;BME280_temperature;BME280_humidity;BME280_pressure;Samples;Min_cycle;Max_cycle;Signal;HPM_P1;HPM_P2
2023/05/24 00:00:11;;;;;;;5.63;1.38;;;;;;;18.18;38.67;102186.38;4973603;28;20035;-64
2023/05/24 00:02:40;;;;;;;11.40;1.63;;;;;;;18.17;38.76;102196.41;4972552;28;20039;-64
2023/05/24 00:05:08;;;;;;;13.43;1.95;;;;;;;18.14;38.42;102195.81;4991743;28;20467;-63
2023/05/24 00:07:34;;;;;;;8.38;1.52;;;;;;;18.09;38.81;102203.53;4976756;28;20033;-64
2023/05/24 00:10:02;;;;;;;10.10;2.35;;;;;;;18.05;38.30;102197.53;4977845;28;20022;-64
2023/05/24 00:12:28;;;;;;;3.88;1.05;;;;;;;18.02;39.27;102187.84;4975963;28;20085;-63
2023/05/24 00:14:53;;;;;;;5.68;2.10;;;;;;;17.98;38.03;102191.81;4977973;28;20478;-64
2023/05/24 00:17:18;;;;;;;6.35;1.42;;;;;;;17.96;38.72;102192.97;4976061;28;20054;-63
2023/05/24 00:19:44;;;;;;;5.53;1.10;;;;;;;17.93;38.33;102195.97;4977402;28;20026;-64
2023/05/24 00:22:10;;;;;;;11.70;1.42;;;;;;;17.88;37.98;102182.84;4977921;28;20061;-64
2023/05/24 00:24:36;;;;;;;7.80;1.38;;;;;;;17.87;38.57;102189.25;4977247;28;20038;-63
2023/05/24 00:27:01;;;;;;;6.03;1.60;;;;;;;17.82;38.95;102191.56;4991864;28;20027;-64
2023/05/24 00:29:26;;;;;;;6.07;1.23;;;;;;;17.77;38.49;102187.56;4977195;28;20115;-64
2023/05/24 00:31:52;;;;;;;8.95;1.35;;;;;;;17.74;39.28;102194.13;4976080;28;20054;-64
2023/05/24 00:34:17;;;;;;;10.43;2.17;;;;;;;17.68;38.48;102194.69;4960277;28;20030;-63
2023/05/24 00:36:42;;;;;;;6.82;1.45;;;;;;;17.58;38.39;102188.41;4977046;28;20411;-63
2023/05/24 00:39:08;;;;;;;5.80;1.15;;;;;;;17.54;38.67;102191.53;4976907;28;20522;-64
2023/05/24 00:41:33;;;;;;;4.97;1.30;;;;;;;17.48;39.23;102184.78;4976899;28;20039;-64
2023/05/24 00:43:59;;;;;;;8.65;1.27;;;;;;;17.41;39.23;102181.81;4976925;28;20055;-63
2023/05/24 00:46:28;;;;;;;5.50;1.05;;;;;;;17.35;39.29;102178.78;4977318;28;20442;-63
2023/05/24 00:48:54;;;;;;;2.95;0.93;;;;;;;17.25;38.83;102167.09;4975542;28;20043;-61
2023/05/24 00:51:20;;;;;;;6.05;1.33;;;;;;;17.25;39.19;102183.34;4959505;28;20038;-61
2023/05/24 00:53:47;;;;;;;5.57;1.42;;;;;;;17.18;38.69;102176.75;5008038;28;20042;-61
2023/05/24 00:56:14;;;;;;;4.55;1.65;;;;;;;17.12;38.63;102177.31;4991608;28;20034;-62
2023/05/24 00:58:39;;;;;;;4.80;1.27;;;;;;;17.02;38.94;102162.91;5008155;28;20031;-61
2023/05/24 01:01:05;;;;;;;6.88;1.50;;;;;;;17.00;39.66;102170.31;4977750;28;20097;-62
2023/05/24 01:03:32;;;;;;;5.35;1.40;;;;;;;16.94;39.45;102168.13;4975752;28;20514;-62
2023/05/24 01:06:00;;;;;;;4.22;1.40;;;;;;;16.91;39.67;102181.94;4959702;28;20039;-63
2023/05/24 01:08:38;;;;;;;7.15;1.35;;;;;;;16.84;38.98;102182.50;4976032;28;20031;-62
2023/05/24 01:11:10;;;;;;;4.25;1.38;;;;;;;16.77;38.93;102184.03;4976603;28;20031;-61
2023/05/24 01:13:46;;;;;;;6.40;1.30;;;;;;;16.73;38.58;102196.13;4959364;28;20026;-62
2023/05/24 01:16:16;;;;;;;6.40;1.10;;;;;;;16.68;39.72;102192.97;5006950;28;20098;-62
2023/05/24 01:18:56;;;;;;;6.07;0.90;;;;;;;16.64;39.29;102191.50;4976736;28;20537;-62
2023/05/24 01:21:47;;;;;;;9.43;1.20;;;;;;;16.57;39.42;102184.94;5007889;28;20058;-62
2023/05/24 01:24:18;;;;;;;3.83;0.90;;;;;;;16.53;40.25;102188.88;4976675;28;20506;-62
2023/05/24 01:27:12;;;;;;;5.55;1.13;;;;;;;16.46;38.95;102187.69;4976168;28;20039;-62
2023/05/24 01:29:37;;;;;;;4.28;1.52;;;;;;;16.35;40.13;102185.06;4974749;28;20031;-61
2023/05/24 01:32:03;;;;;;;6.57;1.35;;;;;;;16.31;40.36;102186.31;4974698;28;20037;-65
2023/05/24 01:34:29;;;;;;;6.18;1.65;;;;;;;16.26;40.02;102191.25;4976310;28;20031;-63
2023/05/24 01:36:54;;;;;;;6.47;1.23;;;;;;;16.19;40.26;102185.53;4974469;28;20119;-62
2023/05/24 01:39:21;;;;;;;10.88;1.42;;;;;;;16.19;39.57;102190.09;4958512;28;20043;-62
2023/05/24 01:41:55;;;;;;;7.47;1.23;;;;;;;16.14;40.92;102192.31;5006988;28;20118;-61
2023/05/24 01:44:28;;;;;;;7.07;1.23;;;;;;;16.08;39.50;102187.47;4975742;28;20038;-62
2023/05/24 01:47:02;;;;;;;5.40;1.48;;;;;;;16.05;41.21;102182.31;4975118;28;20027;-62
2023/05/24 01:49:30;;;;;;;5.75;1.50;;;;;;;15.99;41.09;102183.69;4974786;28;20039;-62
2023/05/24 01:51:58;;;;;;;3.00;1.00;;;;;;;15.93;40.96;102178.81;4974503;28;20054;-62
2023/05/24 01:54:25;;;;;;;1.02;0.82;;;;;;;15.91;40.26;102190.75;4974582;28;20035;-62
2023/05/24 01:56:54;;;;;;;3.72;1.80;;;;;;;15.89;41.02;102182.75;4958715;28;20114;-62
2023/05/24 01:59:22;;;;;;;5.80;1.15;;;;;;;15.87;41.11;102173.06;4978074;28;20038;-62
2023/05/24 02:01:48;;;;;;;6.10;1.20;;;;;;;15.84;41.02;102163.38;4979204;28;20063;-64
2023/05/24 02:04:13;;;;;;;3.72;0.73;;;;;;;15.79;40.87;102164.75;4978290;28;20471;-61
2023/05/24 02:06:38;;;;;;;2.70;0.77;;;;;;;15.76;41.02;102167.72;4976978;28;20450;-61
2023/05/24 02:09:04;;;;;;;1.45;1.17;;;;;;;15.70;41.12;102161.84;4974252;28;20057;-61
2023/05/24 02:11:30;;;;;;;8.25;1.33;;;;;;;15.66;39.59;102164.94;4974179;28;20038;-62
2023/05/24 02:13:55;;;;;;;2.10;1.27;;;;;;;15.59;41.17;102159.19;4974111;28;20031;-61
2023/05/24 02:16:22;;;;;;;5.82;1.48;;;;;;;15.55;41.12;102163.13;4975656;28;20107;-61
2023/05/24 02:18:49;;;;;;;3.75;0.90;;;;;;;15.50;40.79;102154.53;4975192;28;20104;-61
2023/05/24 02:21:14;;;;;;;5.05;1.10;;;;;;;15.48;40.13;102150.25;4975094;28;20499;-64
2023/05/24 02:23:40;;;;;;;3.78;1.33;;;;;;;15.44;40.64;102163.13;4975301;28;20113;-61
2023/05/24 02:26:05;;;;;;;1.45;0.90;;;;;;;15.40;41.56;102153.59;4973895;28;20035;-61
2023/05/24 02:28:31;;;;;;;4.95;1.35;;;;;;;15.33;41.75;102148.78;4973643;28;20034;-61
2023/05/24 02:30:57;;;;;;;3.72;1.30;;;;;;;15.31;40.60;102153.47;4957765;28;20034;-64
2023/05/24 02:33:24;;;;;;;2.60;0.90;;;;;;;15.24;40.80;102145.06;4957518;28;20400;-66
2023/05/24 02:35:50;;;;;;;3.33;1.40;;;;;;;15.23;40.44;102154.13;4973769;28;20034;-61
2023/05/24 02:38:15;;;;;;;5.53;1.77;;;;;;;15.16;40.65;102158.28;5006047;28;20402;-61
2023/05/24 02:40:41;;;;;;;1.65;1.25;;;;;;;15.11;41.70;102152.41;4973146;28;20033;-62
2023/05/24 02:43:08;;;;;;;5.95;1.42;;;;;;;15.09;40.52;102159.78;4973960;28;20372;-61
2023/05/24 02:45:35;;;;;;;2.17;1.30;;;;;;;15.03;40.95;102158.44;4973411;28;20048;-61
2023/05/24 02:48:00;;;;;;;5.95;1.35;;;;;;;15.03;41.10;102163.00;4973580;28;20134;-62
2023/05/24 02:50:26;;;;;;;3.55;0.80;;;;;;;14.99;40.50;102153.44;4973493;28;20106;-62
2023/05/24 02:52:51;;;;;;;5.40;1.35;;;;;;;14.93;41.83;102151.25;4973380;28;20135;-61
2023/05/24 02:55:17;;;;;;;3.03;1.17;;;;;;;14.89;41.78;102157.84;4973530;28;20491;-62
2023/05/24 02:57:42;;;;;;;2.83;1.17;;;;;;;14.84;41.70;102155.53;4957135;28;20042;-62
2023/05/24 03:00:10;;;;;;;6.90;1.70;;;;;;;14.81;41.45;102160.31;4956851;28;20035;-62
2023/05/24 03:02:37;;;;;;;2.05;1.05;;;;;;;14.76;41.41;102157.13;4973102;28;20503;-61
2023/05/24 03:05:03;;;;;;;8.88;1.58;;;;;;;14.74;41.50;102159.94;4988855;28;20041;-61
2023/05/24 03:07:28;;;;;;;4.00;1.35;;;;;;;14.74;41.72;102159.13;4957387;28;20097;-61
2023/05/24 03:09:54;;;;;;;10.63;1.88;;;;;;;14.68;42.17;102144.28;4956833;28;20556;-62
2023/05/24 03:12:19;;;;;;;3.92;1.45;;;;;;;14.69;41.55;102154.06;4972960;28;20038;-62
2023/05/24 03:14:45;;;;;;;3.33;1.42;;;;;;;14.66;41.28;102156.16;4956874;28;20043;-62
2023/05/24 03:17:10;;;;;;;1.63;0.93;;;;;;;14.64;41.18;102150.88;4973003;28;20027;-61
2023/05/24 03:19:36;;;;;;;6.15;1.20;;;;;;;14.60;42.46;102146.72;4989027;28;20506;-61
2023/05/24 03:22:02;;;;;;;5.20;1.50;;;;;;;14.60;41.48;102151.28;4973344;28;20019;-62
2023/05/24 03:24:27;;;;;;;11.25;1.92;;;;;;;14.55;41.83;102148.91;4956743;28;20038;-63
2023/05/24 03:26:53;;;;;;;8.77;1.40;;;;;;;14.54;41.92;102153.44;4972729;28;20087;-60
2023/05/24 03:29:18;;;;;;;5.72;1.35;;;;;;;14.50;42.11;102143.91;4973254;28;20094;-63
2023/05/24 03:31:43;;;;;;;5.30;1.40;;;;;;;14.49;42.66;102149.41;4974162;28;20045;-63
2023/05/24 03:34:09;;;;;;;7.80;1.63;;;;;;;14.47;42.22;102156.75;4973104;28;20479;-62
2023/05/24 03:36:35;;;;;;;11.00;1.35;;;;;;;14.43;42.74;102156.13;4972728;28;20111;-64
2023/05/24 03:39:03;;;;;;;10.27;1.80;;;;;;;14.42;42.61;102151.75;4972427;28;20031;-63
2023/05/24 03:41:28;;;;;;;4.97;1.52;;;;;;;14.43;42.63;102169.63;4988650;28;20034;-62
2023/05/24 03:43:54;;;;;;;6.13;1.30;;;;;;;14.42;41.49;102159.84;4988650;28;20031;-63
2023/05/24 03:46:19;;;;;;;2.92;1.92;;;;;;;14.36;42.61;102157.63;4956952;28;20037;-63
2023/05/24 03:48:45;;;;;;;3.65;1.50;;;;;;;14.37;41.95;102164.75;4956477;28;20051;-62
2023/05/24 03:51:10;;;;;;;2.97;1.45;;;;;;;14.35;42.62;102168.53;4956405;28;20031;-63
2023/05/24 03:53:36;;;;;;;5.53;1.25;;;;;;;14.34;42.82;102173.06;4972389;28;20521;-64
2023/05/24 03:56:01;;;;;;;4.18;1.45;;;;;;;14.32;42.30;102183.09;4972112;28;20097;-63
2023/05/24 03:58:26;;;;;;;3.17;1.40;;;;;;;14.31;42.04;102181.34;4956710;28;20022;-63
2023/05/24 04:00:52;;;;;;;8.82;1.60;;;;;;;14.30;41.86;102179.63;4988173;28;20503;-62
2023/05/24 04:03:20;;;;;;;4.72;1.55;;;;;;;14.30;42.77;102187.72;4972486;28;20037;-63
2023/05/24 04:05:49;;;;;;;3.60;1.60;;;;;;;14.27;42.46;102177.16;4974186;28;20085;-64
2023/05/24 04:08:15;;;;;;;4.97;1.08;;;;;;;14.26;43.41;102175.47;4972888;28;20038;-63
2023/05/24 04:10:40;;;;;;;4.30;2.00;;;;;;;14.27;43.76;102171.78;4971756;28;20030;-63
2023/05/24 04:13:07;;;;;;;1.67;1.10;;;;;;;14.28;42.72;102180.72;4973996;28;20526;-63
2023/05/24 04:15:32;;;;;;;5.13;2.05;;;;;;;14.27;43.13;102177.16;5003667;28;20046;-63
2023/05/24 04:17:59;;;;;;;4.28;1.52;;;;;;;14.29;42.67;102185.16;4971873;28;20043;-63
2023/05/24 04:20:26;;;;;;;3.25;1.45;;;;;;;14.30;42.70;102182.31;4988268;28;20047;-63
2023/05/24 04:22:52;;;;;;;5.43;1.50;;;;;;;14.29;43.39;102177.06;4973482;28;20078;-62
2023/05/24 04:25:17;;;;;;;6.72;1.75;;;;;;;14.35;43.79;102180.16;4956478;28;20038;-65
2023/05/24 04:27:44;;;;;;;6.65;1.77;;;;;;;14.38;42.70;102185.31;4955932;28;20058;-63
2023/05/24 04:30:10;;;;;;;13.35;3.20;;;;;;;14.46;43.60;102180.16;4956358;28;20042;-64
2023/05/24 04:32:35;;;;;;;7.53;2.10;;;;;;;14.53;43.24;102186.81;4971913;28;20089;-63
2023/05/24 04:35:01;;;;;;;14.60;2.15;;;;;;;14.61;42.60;102185.31;4988197;28;20109;-63
2023/05/24 04:37:28;;;;;;;10.80;2.17;;;;;;;14.70;43.55;102184.59;4988749;28;20030;-63
2023/05/24 04:39:53;;;;;;;8.98;2.13;;;;;;;14.78;43.05;102188.41;4988286;28;20119;-62
2023/05/24 04:42:19;;;;;;;10.50;1.88;;;;;;;14.86;43.69;102193.16;4972174;28;20114;-62
2023/05/24 04:44:44;;;;;;;9.80;2.65;;;;;;;14.98;43.07;102189.50;4982059;28;20085;-63
2023/05/24 04:47:11;;;;;;;6.43;1.95;;;;;;;15.07;43.18;102189.59;4992744;28;20054;-63
2023/05/24 04:49:37;;;;;;;10.40;2.20;;;;;;;15.18;43.16;102196.84;4975382;28;20411;-63
2023/05/24 04:52:03;;;;;;;6.28;2.22;;;;;;;15.29;44.13;102199.50;4996201;28;20026;-63
2023/05/24 04:54:28;;;;;;;6.40;1.90;;;;;;;15.37;44.42;102201.56;4994997;28;20453;-63
2023/05/24 04:56:54;;;;;;;5.38;1.60;;;;;;;15.46;44.43;102190.03;4994246;28;20042;-63
2023/05/24 04:59:19;;;;;;;8.05;2.22;;;;;;;15.56;43.06;102202.66;4959331;28;20498;-63
2023/05/24 05:01:45;;;;;;;18.45;2.55;;;;;;;15.65;43.86;102195.63;4975350;28;20054;-63
2023/05/24 05:04:10;;;;;;;12.20;2.50;;;;;;;15.72;44.43;102194.97;4975615;28;20034;-63
2023/05/24 05:06:38;;;;;;;8.80;2.60;;;;;;;15.80;44.43;102188.09;4975237;28;20089;-62
2023/05/24 05:09:08;;;;;;;21.40;3.03;;;;;;;15.93;43.87;102199.56;4959673;28;20568;-63
2023/05/24 05:11:34;;;;;;;8.85;2.35;;;;;;;16.03;44.16;102200.47;4975591;28;20038;-64
2023/05/24 05:13:59;;;;;;;11.65;1.98;;;;;;;16.12;44.42;102202.41;4976218;28;20035;-63
2023/05/24 05:16:24;;;;;;;8.60;2.17;;;;;;;16.22;44.65;102200.63;4976935;28;20478;-63
2023/05/24 05:18:50;;;;;;;8.82;2.65;;;;;;;16.36;44.32;102202.16;4976360;28;20380;-63
2023/05/24 05:21:16;;;;;;;13.85;2.20;;;;;;;16.43;43.81;102204.19;4975474;28;20038;-61
2023/05/24 05:23:41;;;;;;;9.32;3.38;;;;;;;16.52;44.08;102194.41;4976230;28;20041;-61
2023/05/24 05:26:07;;;;;;;9.55;2.30;;;;;;;16.65;43.85;102200.50;4974914;28;20461;-63
2023/05/24 05:28:32;;;;;;;8.15;2.42;;;;;;;16.73;44.42;102193.41;4975078;28;20026;-62
2023/05/24 05:30:58;;;;;;;7.47;2.92;;;;;;;16.86;43.29;102202.16;4958753;28;20031;-63
2023/05/24 05:33:23;;;;;;;28.77;3.25;;;;;;;16.98;43.26;102204.75;4976299;28;20506;-64
2023/05/24 05:35:49;;;;;;;5.35;2.10;;;;;;;17.12;43.64;102209.78;4976770;28;20122;-64
2023/05/24 05:38:14;;;;;;;15.80;2.75;;;;;;;17.23;42.93;102193.44;4958638;28;20122;-63
2023/05/24 05:40:40;;;;;;;11.05;3.13;;;;;;;17.37;43.48;102193.03;4976500;28;20470;-62
2023/05/24 05:43:07;;;;;;;21.38;2.53;;;;;;;17.58;44.06;102201.97;4975270;28;20497;-62
2023/05/24 05:45:32;;;;;;;4.95;1.98;;;;;;;17.72;42.42;102200.69;4976573;28;20038;-63
2023/05/24 05:47:58;;;;;;;10.25;2.97;;;;;;;17.83;43.24;102198.69;4959150;28;20450;-63
2023/05/24 05:50:23;;;;;;;8.95;3.22;;;;;;;17.93;43.35;102194.13;4976343;28;20053;-62
2023/05/24 05:52:48;;;;;;;8.23;3.05;;;;;;;18.08;43.01;102201.81;4975032;28;20023;-62
2023/05/24 05:55:14;;;;;;;11.48;3.55;;;;;;;18.18;42.53;102187.25;4975104;28;20501;-63
2023/05/24 05:57:40;;;;;;;12.70;3.53;;;;;;;18.29;43.07;102197.06;4974588;28;20031;-62
2023/05/24 06:00:07;;;;;;;10.82;3.00;;;;;;;18.38;42.85;102198.91;4974384;28;20039;-63
2023/05/24 06:02:33;;;;;;;9.43;3.03;;;;;;;18.42;42.18;102197.63;4958077;28;20039;-63
2023/05/24 06:04:59;;;;;;;13.70;3.40;;;;;;;18.44;42.50;102185.63;4975716;28;20109;-63
2023/05/24 06:07:25;;;;;;;15.27;3.30;;;;;;;18.61;42.56;102200.31;4958885;28;20505;-62
2023/05/24 06:09:51;;;;;;;11.73;2.30;;;;;;;18.75;42.76;102197.13;4975902;28;20023;-63
2023/05/24 06:12:16;;;;;;;6.50;2.65;;;;;;;18.87;41.86;102197.81;4974250;28;20383;-63
2023/05/24 06:14:42;;;;;;;12.10;3.42;;;;;;;18.95;42.39;102193.34;4974298;28;20102;-62
2023/05/24 06:17:08;;;;;;;9.35;1.80;;;;;;;19.08;41.89;102193.84;4974047;28;20516;-62
2023/05/24 06:19:33;;;;;;;8.90;2.50;;;;;;;19.17;41.98;102192.94;4975201;28;20029;-62
2023/05/24 06:21:59;;;;;;;12.93;2.60;;;;;;;19.31;42.34;102193.41;4974649;28;20014;-63
2023/05/24 06:24:27;;;;;;;13.88;2.45;;;;;;;19.41;42.21;102186.94;4974291;28;20126;-62
2023/05/24 06:26:53;;;;;;;12.32;3.00;;;;;;;19.57;41.60;102200.69;4974699;28;20111;-63
2023/05/24 06:29:20;;;;;;;9.02;2.70;;;;;;;19.72;41.80;102192.88;4975469;28;20110;-63
2023/05/24 06:31:46;;;;;;;14.55;2.50;;;;;;;19.89;41.24;102199.31;4974876;28;20451;-63
2023/05/24 06:34:12;;;;;;;10.40;2.78;;;;;;;20.00;41.46;102208.09;4975192;28;20114;-63
2023/05/24 06:36:41;;;;;;;7.95;2.03;;;;;;;20.15;41.07;102206.53;4974731;28;20046;-64
2023/05/24 06:39:08;;;;;;;13.00;2.47;;;;;;;20.30;41.12;102215.84;4973354;28;20118;-63
2023/05/24 06:41:34;;;;;;;6.88;2.30;;;;;;;20.43;41.00;102209.16;4974728;28;20034;-64
2023/05/24 06:44:00;;;;;;;16.70;3.22;;;;;;;20.56;40.81;102207.69;4957031;28;20031;-63
2023/05/24 06:46:26;;;;;;;9.88;2.13;;;;;;;20.69;40.16;102209.97;4975245;28;20501;-64
2023/05/24 06:48:51;;;;;;;7.93;2.38;;;;;;;20.82;40.65;102202.25;4973764;28;20174;-64
2023/05/24 06:51:16;;;;;;;13.73;2.28;;;;;;;20.99;40.12;102204.03;4972919;28;20402;-63
2023/05/24 06:53:42;;;;;;;14.80;2.72;;;;;;;21.05;40.39;102192.47;4974436;28;20038;-64
2023/05/24 06:56:09;;;;;;;7.28;2.90;;;;;;;21.19;39.87;102202.78;4956819;28;20035;-64
2023/05/24 06:58:35;;;;;;;13.90;2.55;;;;;;;21.17;40.49;102201.22;4974449;28;20135;-63
2023/05/24 07:01:01;;;;;;;10.65;1.77;;;;;;;21.28;39.90;102204.50;4973012;28;20051;-64
2023/05/24 07:03:27;;;;;;;13.82;2.20;;;;;;;21.30;39.95;102205.19;4973063;28;20561;-64
2023/05/24 07:05:52;;;;;;;8.80;2.58;;;;;;;21.01;40.81;102193.81;4984083;28;20450;-64
2023/05/24 07:08:18;;;;;;;7.97;2.10;;;;;;;21.18;40.64;102192.03;4992094;28;20034;-64
2023/05/24 07:10:43;;;;;;;7.47;2.35;;;;;;;21.13;40.66;102192.56;4993455;28;20399;-63
2023/05/24 07:13:12;;;;;;;8.68;2.58;;;;;;;20.93;40.23;102196.50;4991924;28;20097;-64
2023/05/24 07:15:40;;;;;;;9.25;2.67;;;;;;;20.79;40.45;102199.84;5008194;28;20576;-63
2023/05/24 07:18:05;;;;;;;10.90;2.67;;;;;;;20.74;40.94;102203.03;4992072;28;20042;-63
2023/05/24 07:20:31;;;;;;;10.18;2.53;;;;;;;20.78;40.34;102198.97;4992874;28;20458;-64
2023/05/24 07:22:57;;;;;;;8.75;3.55;;;;;;;20.90;40.64;102207.72;5008501;28;20030;-64
2023/05/24 07:25:23;;;;;;;10.15;2.45;;;;;;;21.55;40.22;102208.00;5009100;28;20097;-64
2023/05/24 07:27:49;;;;;;;12.15;2.88;;;;;;;21.75;40.24;102220.28;4993435;28;20034;-64
2023/05/24 07:30:15;;;;;;;11.80;2.95;;;;;;;22.30;39.69;102215.94;4992292;28;20031;-65
2023/05/24 07:32:40;;;;;;;9.73;2.30;;;;;;;22.56;39.75;102222.03;4992439;28;20086;-65
2023/05/24 07:35:06;;;;;;;8.55;2.15;;;;;;;22.26;39.23;102222.75;4992343;28;20443;-64
2023/05/24 07:37:31;;;;;;;8.65;2.33;;;;;;;21.93;40.29;102230.09;5008619;28;20033;-64
2023/05/24 07:39:57;;;;;;;10.45;2.90;;;;;;;21.68;40.42;102227.47;5009046;28;20437;-64
2023/05/24 07:42:23;;;;;;;6.35;2.15;;;;;;;21.48;39.86;102230.47;4993429;28;20026;-66
2023/05/24 07:44:48;;;;;;;8.32;2.40;;;;;;;21.40;40.63;102227.72;4991959;28;20528;-64
2023/05/24 07:47:13;;;;;;;17.85;2.65;;;;;;;21.26;40.10;102228.38;5008354;28;20034;-64
2023/05/24 07:49:39;;;;;;;10.18;2.08;;;;;;;21.22;39.65;102234.28;4991893;28;20398;-66
2023/05/24 07:52:04;;;;;;;24.45;3.15;;;;;;;21.51;39.63;102228.44;4992467;28;20050;-64
2023/05/24 07:54:30;;;;;;;9.23;2.95;;;;;;;22.04;38.69;102234.38;5008314;28;20045;-63
2023/05/24 07:56:56;;;;;;;13.02;2.30;;;;;;;22.57;37.84;102221.03;5008333;28;20034;-64
2023/05/24 07:59:22;;;;;;;13.38;3.05;;;;;;;22.67;38.07;102220.03;5008196;28;20487;-64
2023/05/24 08:01:48;;;;;;;9.40;2.83;;;;;;;22.82;38.58;102207.34;4991755;28;20138;-65
2023/05/24 08:04:13;;;;;;;17.67;3.05;;;;;;;22.76;38.25;102216.22;5008779;28;20053;-64
2023/05/24 08:06:38;;;;;;;9.88;2.45;;;;;;;22.74;38.47;102207.38;4993494;28;20030;-64
2023/05/24 08:09:06;;;;;;;6.93;1.98;;;;;;;22.60;38.14;102212.50;4993487;28;20045;-65
2023/05/24 08:11:31;;;;;;;8.63;2.47;;;;;;;23.13;37.93;102208.25;5008229;28;20042;-66
2023/05/24 08:13:57;;;;;;;11.45;2.17;;;;;;;23.45;37.21;102210.84;4992508;28;20387;-65
2023/05/24 08:16:23;;;;;;;14.30;2.53;;;;;;;22.88;37.46;102220.31;4976330;28;20035;-65
2023/05/24 08:18:48;;;;;;;10.93;2.53;;;;;;;23.50;37.00;102205.72;4975804;28;20371;-65
2023/05/24 08:21:13;;;;;;;11.82;2.65;;;;;;;23.98;36.10;102214.63;4992044;28;20193;-65
2023/05/24 08:23:39;;;;;;;7.63;2.30;;;;;;;24.37;35.20;102215.34;4992040;28;20042;-64
2023/05/24 08:26:05;;;;;;;5.95;2.05;;;;;;;24.66;34.79;102214.53;4994982;28;20038;-65
2023/05/24 08:28:31;;;;;;;12.02;2.28;;;;;;;24.89;34.98;102212.59;4995869;28;20113;-65
2023/05/24 08:30:58;;;;;;;8.05;2.65;;;;;;;25.14;34.91;102216.75;4996050;28;20109;-65
2023/05/24 08:33:23;;;;;;;6.00;2.42;;;;;;;25.36;34.39;102207.53;5011869;28;20035;-66
2023/05/24 08:35:51;;;;;;;10.43;2.80;;;;;;;25.54;34.35;102203.56;4997037;28;20084;-65
2023/05/24 08:38:17;;;;;;;10.48;2.53;;;;;;;25.80;33.90;102199.19;4995402;28;20034;-65
2023/05/24 08:40:42;;;;;;;12.05;3.78;;;;;;;25.84;34.26;102203.25;5011910;28;20034;-65
2023/05/24 08:43:10;;;;;;;10.93;2.10;;;;;;;26.03;34.30;102199.84;5012419;28;20406;-66
2023/05/24 08:45:37;;;;;;;7.78;2.15;;;;;;;26.25;33.90;102194.34;5011727;28;20418;-66
2023/05/24 08:48:04;;;;;;;8.95;4.10;;;;;;;26.30;33.13;102189.94;4995484;28;20109;-65
2023/05/24 08:50:30;;;;;;;11.40;2.78;;;;;;;25.58;34.30;102189.22;4996824;28;20109;-66
2023/05/24 08:52:57;;;;;;;7.82;2.70;;;;;;;25.11;34.21;102191.56;5011653;28;20045;-65
2023/05/24 08:55:22;;;;;;;15.18;2.45;;;;;;;24.67;34.45;102186.94;4979567;28;20122;-64
2023/05/24 08:57:48;;;;;;;13.38;2.50;;;;;;;24.61;34.03;102182.22;4995348;28;20146;-65
2023/05/24 09:00:14;;;;;;;8.02;2.58;;;;;;;24.52;33.92;102191.53;5011507;28;20034;-65
2023/05/24 09:02:41;;;;;;;5.82;2.30;;;;;;;24.97;33.31;102185.06;4995985;28;20387;-65
2023/05/24 09:05:09;;;;;;;11.55;3.85;;;;;;;25.22;33.00;102186.47;5011683;28;20035;-65
2023/05/24 09:07:35;;;;;;;15.05;4.38;;;;;;;25.39;32.90;102184.34;4978791;28;20034;-65
2023/05/24 09:10:05;;;;;;;9.70;2.22;;;;;;;25.25;32.99;102182.47;4979199;28;20030;-65
2023/05/24 09:12:32;;;;;;;7.00;2.58;;;;;;;25.64;32.80;102177.47;4994817;28;20048;-65
2023/05/24 09:14:57;;;;;;;12.35;4.10;;;;;;;25.33;32.92;102174.97;4994643;28;20037;-65
2023/05/24 09:17:23;;;;;;;16.88;2.70;;;;;;;25.86;31.98;102170.09;4994853;28;20454;-66
2023/05/24 09:19:50;;;;;;;11.75;2.78;;;;;;;25.40;32.41;102175.06;4994798;28;20414;-65
2023/05/24 09:22:22;;;;;;;9.18;3.42;;;;;;;24.99;32.97;102184.88;4995321;28;20023;-65
2023/05/24 09:24:48;;;;;;;4.80;2.17;;;;;;;25.35;32.18;102185.75;5010375;28;20408;-65
2023/05/24 09:27:15;;;;;;;11.68;3.35;;;;;;;25.33;32.59;102182.34;4994711;28;20034;-65
2023/05/24 09:29:42;;;;;;;6.18;2.22;;;;;;;25.07;32.58;102184.78;5010911;28;20081;-65
2023/05/24 09:32:07;;;;;;;7.47;2.65;;;;;;;25.23;32.46;102182.69;5010853;28;20037;-65
2023/05/24 09:34:38;;;;;;;13.35;3.45;;;;;;;25.80;32.20;102179.97;4978272;28;20115;-65
2023/05/24 09:37:04;;;;;;;9.98;3.72;;;;;;;26.37;31.56;102181.78;4994657;28;20030;-66
2023/05/24 09:39:30;;;;;;;9.70;2.67;;;;;;;26.81;31.33;102173.22;5010802;28;20158;-65
2023/05/24 09:41:56;;;;;;;6.68;2.55;;;;;;;26.98;31.19;102161.66;4995689;28;20035;-65
2023/05/24 09:44:26;;;;;;;7.97;2.78;;;;;;;26.76;31.33;102168.28;5011066;28;20084;-66
2023/05/24 09:46:53;;;;;;;8.85;2.47;;;;;;;26.78;31.40;102168.97;4996104;28;20038;-66
2023/05/24 09:49:20;;;;;;;6.72;3.08;;;;;;;26.52;31.51;102168.78;4995227;28;20014;-66
2023/05/24 09:51:45;;;;;;;7.55;2.65;;;;;;;26.44;31.53;102163.41;4978508;28;20035;-65
2023/05/24 09:54:11;;;;;;;10.55;3.33;;;;;;;27.09;30.85;102157.47;5011243;28;20045;-66
2023/05/24 09:56:38;;;;;;;8.40;2.90;;;;;;;27.47;30.67;102155.13;5014801;28;20034;-66
2023/05/24 09:59:08;;;;;;;8.57;2.15;;;;;;;27.76;30.53;102146.47;4997910;28;20181;-65
2023/05/24 10:01:34;;;;;;;8.85;3.05;;;;;;;28.11;30.01;102142.47;4995743;28;20050;-66
2023/05/24 10:04:01;;;;;;;8.40;2.42;;;;;;;28.19;30.46;102149.72;5012348;28;20030;-66
2023/05/24 10:06:27;;;;;;;9.63;3.13;;;;;;;28.47;30.42;102147.56;4994838;28;20050;-66
2023/05/24 10:08:54;;;;;;;4.85;2.55;;;;;;;28.72;29.17;102142.22;4994085;28;20095;-68
2023/05/24 10:11:20;;;;;;;10.80;2.80;;;;;;;28.39;30.20;102138.66;4995201;28;20548;-66
2023/05/24 10:13:48;;;;;;;13.02;2.92;;;;;;;27.92;30.16;102135.03;4993829;28;20033;-66
2023/05/24 10:16:14;;;;;;;7.80;2.72;;;;;;;27.82;30.57;102145.63;4995298;28;20018;-67
2023/05/24 10:18:40;;;;;;;8.52;2.85;;;;;;;28.36;30.35;102139.09;4995824;28;20038;-66
2023/05/24 10:21:08;;;;;;;13.48;3.80;;;;;;;28.83;29.52;102141.56;4993512;28;20042;-66
2023/05/24 10:23:37;;;;;;;9.75;2.83;;;;;;;28.33;30.45;102139.53;5009784;28;20041;-66
2023/05/24 10:26:07;;;;;;;13.10;3.20;;;;;;;27.81;30.19;102135.66;4977792;28;20045;-66
2023/05/24 10:28:54;;;;;;;11.27;3.40;;;;;;;27.38;30.48;102139.81;4994914;28;20026;-66
2023/05/24 10:31:34;;;;;;;11.07;2.80;;;;;;;27.22;30.89;102151.19;5010018;28;20014;-66
2023/05/24 10:34:01;;;;;;;9.13;3.13;;;;;;;27.23;30.66;102147.38;4993785;28;20101;-66
2023/05/24 10:36:29;;;;;;;9.75;3.10;;;;;;;27.08;30.01;102140.13;4993615;28;20550;-66
2023/05/24 10:38:55;;;;;;;6.75;3.33;;;;;;;26.94;30.10;102149.38;5009585;28;20070;-66
2023/05/24 10:41:21;;;;;;;8.35;2.78;;;;;;;27.76;30.12;102143.72;4993334;28;20073;-66
2023/05/24 10:43:49;;;;;;;5.85;2.40;;;;;;;27.50;29.61;102136.25;5009698;28;20033;-66
2023/05/24 10:46:17;;;;;;;10.23;2.85;;;;;;;27.34;29.54;102138.50;4996705;28;20034;-66
2023/05/24 10:48:43;;;;;;;8.20;2.42;;;;;;;27.29;30.51;102141.91;4992056;28;20434;-66
2023/05/24 10:51:32;;;;;;;6.47;2.47;;;;;;;27.31;30.39;102127.91;5009341;28;20042;-66
2023/05/24 10:54:11;;;;;;;11.30;2.83;;;;;;;27.87;29.73;102129.31;4992880;28;20037;-66
2023/05/24 10:56:41;;;;;;;8.38;2.72;;;;;;;28.48;29.30;102124.41;4992649;28;20037;-66
2023/05/24 10:59:07;;;;;;;7.20;2.88;;;;;;;28.94;29.30;102127.09;4992787;28;20038;-66
2023/05/24 11:01:33;;;;;;;8.73;3.05;;;;;;;29.30;29.23;102132.03;5008972;28;20042;-67
2023/05/24 11:04:15;;;;;;;13.30;3.15;;;;;;;29.66;28.54;102123.09;4993345;28;20042;-66
2023/05/24 11:07:10;;;;;;;7.88;2.92;;;;;;;29.88;28.84;102125.28;5009032;28;20045;-67
2023/05/24 11:09:44;;;;;;;8.70;3.00;;;;;;;29.96;27.86;102132.44;4991063;28;20034;-67
2023/05/24 11:12:13;;;;;;;5.63;2.28;;;;;;;29.53;28.17;102123.19;4992773;28;20081;-66
2023/05/24 11:14:38;;;;;;;5.72;2.20;;;;;;;29.07;28.63;102118.72;4992976;28;20101;-66
2023/05/24 11:17:05;;;;;;;4.70;2.75;;;;;;;28.72;29.34;102122.91;4993991;28;20034;-66
2023/05/24 11:19:36;;;;;;;10.30;2.70;;;;;;;28.47;28.95;102121.91;4992337;28;20031;-67